sensor_id;sensor_type;location;lat;lon;timestamp;temperature;humidity
14401;DHT22;7285;50.894;5.462;2022-08-19T00:00:30;17.00;99.90
14401;DHT22;7285;50.894;5.462;2022-08-19T00:02:56;17.00;99.90
14401;DHT22;7285;50.894;5.462;2022-08-19T00:05:23;17.00;99.90
14401;DHT22;7285;50.894;5.462;2022-08-19T00:07:51;16.90;99.90
14401;DHT22;7285;50.894;5.462;2022-08-19T00:10:19;16.90;1.00
14401;DHT22;7285;50.894;5.462;2022-08-19T00:12:47;16.90;1.00
14401;DHT22;7285;50.894;5.462;2022-08-19T00:15:17;16.80;1.00
14401;DHT22;7285;50.894;5.462;2022-08-19T00:17:44;16.90;1.00
14401;DHT22;7285;50.894;5.462;2022-08-19T00:20:13;16.80;1.00
14401;DHT22;7285;50.894;5.462;2022-08-19T00:22:42;16.90;36.50
14401;DHT22;7285;50.894;5.462;2022-08-19T00:25:10;16.80;99.90
14401;DHT22;7285;50.894;5.462;2022-08-19T00:27:37;16.90;1.00
14401;DHT22;7285;50.894;5.462;2022-08-19T00:30:07;16.90;50.60
14401;DHT22;7285;50.894;5.462;2022-08-19T00:32:34;16.80;1.00
14401;DHT22;7285;50.894;5.462;2022-08-19T00:35:02;16.70;1.00
14401;DHT22;7285;50.894;5.462;2022-08-19T00:37:29;16.70;99.90
14401;DHT22;7285;50.894;5.462;2022-08-19T00:39:56;16.70;99.90
14401;DHT22;7285;50.894;5.462;2022-08-19T00:42:23;16.70;99.90
14401;DHT22;7285;50.894;5.462;2022-08-19T00:44:54;16.60;1.00
14401;DHT22;7285;50.894;5.462;2022-08-19T00:47:22;16.60;1.00
14401;DHT22;7285;50.894;5.462;2022-08-19T00:49:52;16.60;1.00
14401;DHT22;7285;50.894;5.462;2022-08-19T00:52:23;16.60;1.00
14401;DHT22;7285;50.894;5.462;2022-08-19T00:54:51;16.50;1.00
14401;DHT22;7285;50.894;5.462;2022-08-19T00:57:22;16.50;1.00
14401;DHT22;7285;50.894;5.462;2022-08-19T00:59:53;16.50;99.90
14401;DHT22;7285;50.894;5.462;2022-08-19T01:02:23;16.50;99.90
14401;DHT22;7285;50.894;5.462;2022-08-19T01:04:50;16.50;1.00
14401;DHT22;7285;50.894;5.462;2022-08-19T01:07:18;16.50;1.00
14401;DHT22;7285;50.894;5.462;2022-08-19T01:09:46;16.50;1.00
14401;DHT22;7285;50.894;5.462;2022-08-19T01:12:13;16.50;1.00
14401;DHT22;7285;50.894;5.462;2022-08-19T01:14:40;16.40;1.00
14401;DHT22;7285;50.894;5.462;2022-08-19T01:17:08;16.40;99.90
14401;DHT22;7285;50.894;5.462;2022-08-19T01:19:39;16.40;99.90
14401;DHT22;7285;50.894;5.462;2022-08-19T01:22:11;16.30;99.90
14401;DHT22;7285;50.894;5.462;2022-08-19T01:24:40;16.30;99.90
14401;DHT22;7285;50.894;5.462;2022-08-19T01:27:08;16.30;1.00
14401;DHT22;7285;50.894;5.462;2022-08-19T01:29:39;16.30;1.00
14401;DHT22;7285;50.894;5.462;2022-08-19T01:32:08;16.30;1.00
14401;DHT22;7285;50.894;5.462;2022-08-19T01:34:35;16.30;1.00
14401;DHT22;7285;50.894;5.462;2022-08-19T01:37:06;16.40;99.90
14401;DHT22;7285;50.894;5.462;2022-08-19T01:39:37;16.40;99.90
14401;DHT22;7285;50.894;5.462;2022-08-19T01:42:06;16.40;99.90
14401;DHT22;7285;50.894;5.462;2022-08-19T01:44:35;16.40;1.00
14401;DHT22;7285;50.894;5.462;2022-08-19T01:47:03;16.30;1.00
14401;DHT22;7285;50.894;5.462;2022-08-19T01:49:31;16.30;1.00
14401;DHT22;7285;50.894;5.462;2022-08-19T01:52:00;16.30;1.00
14401;DHT22;7285;50.894;5.462;2022-08-19T01:54:27;16.30;1.00
14401;DHT22;7285;50.894;5.462;2022-08-19T01:56:59;16.20;1.00
14401;DHT22;7285;50.894;5.462;2022-08-19T01:59:28;16.20;99.90
14401;DHT22;7285;50.894;5.462;2022-08-19T02:01:55;16.10;99.90
14401;DHT22;7285;50.894;5.462;2022-08-19T02:04:22;16.20;99.90
14401;DHT22;7285;50.894;5.462;2022-08-19T02:06:51;16.10;99.90
14401;DHT22;7285;50.894;5.462;2022-08-19T02:09:18;16.10;99.90
14401;DHT22;7285;50.894;5.462;2022-08-19T02:11:45;16.00;99.90
14401;DHT22;7285;50.894;5.462;2022-08-19T02:14:12;16.00;99.90
14401;DHT22;7285;50.894;5.462;2022-08-19T02:16:40;16.00;99.90
14401;DHT22;7285;50.894;5.462;2022-08-19T02:19:08;16.00;1.00
14401;DHT22;7285;50.894;5.462;2022-08-19T02:21:36;16.00;1.00
14401;DHT22;7285;50.894;5.462;2022-08-19T02:24:04;15.90;1.00
14401;DHT22;7285;50.894;5.462;2022-08-19T02:26:31;15.90;97.20
14401;DHT22;7285;50.894;5.462;2022-08-19T02:28:58;15.90;99.90
14401;DHT22;7285;50.894;5.462;2022-08-19T02:31:26;15.80;99.90
14401;DHT22;7285;50.894;5.462;2022-08-19T02:33:56;15.90;99.90
14401;DHT22;7285;50.894;5.462;2022-08-19T02:36:24;15.90;99.90
14401;DHT22;7285;50.894;5.462;2022-08-19T02:38:52;15.80;99.90
14401;DHT22;7285;50.894;5.462;2022-08-19T02:41:20;15.80;99.90
14401;DHT22;7285;50.894;5.462;2022-08-19T02:43:48;15.80;1.00
14401;DHT22;7285;50.894;5.462;2022-08-19T02:46:17;15.80;1.00
14401;DHT22;7285;50.894;5.462;2022-08-19T02:48:47;15.80;99.90
14401;DHT22;7285;50.894;5.462;2022-08-19T02:51:18;15.80;1.00
14401;DHT22;7285;50.894;5.462;2022-08-19T02:53:46;15.80;99.90
14401;DHT22;7285;50.894;5.462;2022-08-19T02:56:13;15.70;1.00
14401;DHT22;7285;50.894;5.462;2022-08-19T02:58:40;15.70;99.90
14401;DHT22;7285;50.894;5.462;2022-08-19T03:01:08;15.60;1.00
14401;DHT22;7285;50.894;5.462;2022-08-19T03:03:36;15.60;1.00
14401;DHT22;7285;50.894;5.462;2022-08-19T03:06:08;15.60;1.00
14401;DHT22;7285;50.894;5.462;2022-08-19T03:08:37;15.50;1.00
14401;DHT22;7285;50.894;5.462;2022-08-19T03:11:04;15.50;7.70
14401;DHT22;7285;50.894;5.462;2022-08-19T03:13:32;15.50;4.90
14401;DHT22;7285;50.894;5.462;2022-08-19T03:15:59;15.50;1.00
14401;DHT22;7285;50.894;5.462;2022-08-19T03:18:26;15.50;99.90
14401;DHT22;7285;50.894;5.462;2022-08-19T03:20:54;15.50;1.00
14401;DHT22;7285;50.894;5.462;2022-08-19T03:23:23;15.50;1.00
14401;DHT22;7285;50.894;5.462;2022-08-19T03:25:52;15.50;1.00
14401;DHT22;7285;50.894;5.462;2022-08-19T03:28:20;15.50;1.00
14401;DHT22;7285;50.894;5.462;2022-08-19T03:30:57;15.50;1.00
14401;DHT22;7285;50.894;5.462;2022-08-19T03:33:26;15.50;1.00
14401;DHT22;7285;50.894;5.462;2022-08-19T03:36:04;15.40;1.00
14401;DHT22;7285;50.894;5.462;2022-08-19T03:38:32;15.40;87.30
14401;DHT22;7285;50.894;5.462;2022-08-19T03:41:05;15.50;99.90
14401;DHT22;7285;50.894;5.462;2022-08-19T03:43:34;15.40;1.00
14401;DHT22;7285;50.894;5.462;2022-08-19T03:46:03;15.40;1.00
14401;DHT22;7285;50.894;5.462;2022-08-19T03:48:31;15.40;1.00
14401;DHT22;7285;50.894;5.462;2022-08-19T03:50:58;15.40;7.20
14401;DHT22;7285;50.894;5.462;2022-08-19T03:53:26;15.40;31.20
14401;DHT22;7285;50.894;5.462;2022-08-19T03:55:53;15.30;4.30
14401;DHT22;7285;50.894;5.462;2022-08-19T03:58:23;15.30;1.00
14401;DHT22;7285;50.894;5.462;2022-08-19T04:00:50;15.20;99.90
14401;DHT22;7285;50.894;5.462;2022-08-19T04:03:17;15.30;99.90
14401;DHT22;7285;50.894;5.462;2022-08-19T04:05:45;15.20;99.90
14401;DHT22;7285;50.894;5.462;2022-08-19T04:08:13;15.20;19.40
14401;DHT22;7285;50.894;5.462;2022-08-19T04:10:46;15.20;1.00
14401;DHT22;7285;50.894;5.462;2022-08-19T04:13:14;15.10;1.00
14401;DHT22;7285;50.894;5.462;2022-08-19T04:15:44;15.20;1.00
14401;DHT22;7285;50.894;5.462;2022-08-19T04:18:12;15.10;1.00
14401;DHT22;7285;50.894;5.462;2022-08-19T04:20:44;15.10;99.90
14401;DHT22;7285;50.894;5.462;2022-08-19T04:23:11;15.00;48.00
14401;DHT22;7285;50.894;5.462;2022-08-19T04:25:40;15.00;1.00
14401;DHT22;7285;50.894;5.462;2022-08-19T04:28:08;15.00;1.00
14401;DHT22;7285;50.894;5.462;2022-08-19T04:30:38;14.90;1.00
14401;DHT22;7285;50.894;5.462;2022-08-19T04:33:07;14.90;99.90
14401;DHT22;7285;50.894;5.462;2022-08-19T04:35:36;14.90;1.00
14401;DHT22;7285;50.894;5.462;2022-08-19T04:38:04;14.90;85.90
14401;DHT22;7285;50.894;5.462;2022-08-19T04:40:32;14.90;99.90
14401;DHT22;7285;50.894;5.462;2022-08-19T04:43:17;14.80;1.00
14401;DHT22;7285;50.894;5.462;2022-08-19T04:45:44;14.90;1.00
14401;DHT22;7285;50.894;5.462;2022-08-19T04:48:13;14.90;99.90
14401;DHT22;7285;50.894;5.462;2022-08-19T04:50:42;14.90;1.00
14401;DHT22;7285;50.894;5.462;2022-08-19T04:53:09;15.00;1.00
14401;DHT22;7285;50.894;5.462;2022-08-19T04:55:39;14.90;99.90
14401;DHT22;7285;50.894;5.462;2022-08-19T04:58:07;14.90;99.90
14401;DHT22;7285;50.894;5.462;2022-08-19T05:00:36;14.90;1.00
14401;DHT22;7285;50.894;5.462;2022-08-19T05:03:03;15.00;1.00
14401;DHT22;7285;50.894;5.462;2022-08-19T05:05:32;15.10;99.90
14401;DHT22;7285;50.894;5.462;2022-08-19T05:07:59;15.00;99.90
14401;DHT22;7285;50.894;5.462;2022-08-19T05:10:26;15.00;99.90
14401;DHT22;7285;50.894;5.462;2022-08-19T05:12:53;15.00;99.90
14401;DHT22;7285;50.894;5.462;2022-08-19T05:15:20;15.00;99.90
14401;DHT22;7285;50.894;5.462;2022-08-19T05:17:47;15.00;1.00
14401;DHT22;7285;50.894;5.462;2022-08-19T05:20:28;15.10;1.00
14401;DHT22;7285;50.894;5.462;2022-08-19T05:23:13;15.10;97.00
14401;DHT22;7285;50.894;5.462;2022-08-19T05:25:41;15.10;99.90
14401;DHT22;7285;50.894;5.462;2022-08-19T05:28:08;15.10;99.90
14401;DHT22;7285;50.894;5.462;2022-08-19T05:30:35;15.20;99.90
14401;DHT22;7285;50.894;5.462;2022-08-19T05:33:02;15.20;99.90
14401;DHT22;7285;50.894;5.462;2022-08-19T05:35:29;15.20;99.90
14401;DHT22;7285;50.894;5.462;2022-08-19T05:37:56;15.20;99.90
14401;DHT22;7285;50.894;5.462;2022-08-19T05:40:24;15.30;99.90
14401;DHT22;7285;50.894;5.462;2022-08-19T05:42:51;15.40;99.90
14401;DHT22;7285;50.894;5.462;2022-08-19T05:45:19;15.40;1.00
14401;DHT22;7285;50.894;5.462;2022-08-19T05:47:47;15.50;1.00
14401;DHT22;7285;50.894;5.462;2022-08-19T05:50:14;15.60;1.00
14401;DHT22;7285;50.894;5.462;2022-08-19T05:52:43;15.70;1.00
14401;DHT22;7285;50.894;5.462;2022-08-19T05:55:10;15.70;99.90
14401;DHT22;7285;50.894;5.462;2022-08-19T05:57:39;15.90;99.90
14401;DHT22;7285;50.894;5.462;2022-08-19T06:00:07;16.00;1.00
14401;DHT22;7285;50.894;5.462;2022-08-19T06:02:36;16.10;1.00
14401;DHT22;7285;50.894;5.462;2022-08-19T06:05:04;16.30;1.00
14401;DHT22;7285;50.894;5.462;2022-08-19T06:07:34;16.40;5.70
14401;DHT22;7285;50.894;5.462;2022-08-19T06:10:02;16.50;99.90
14401;DHT22;7285;50.894;5.462;2022-08-19T06:12:30;16.60;1.00
14401;DHT22;7285;50.894;5.462;2022-08-19T06:15:00;16.70;1.00
14401;DHT22;7285;50.894;5.462;2022-08-19T06:17:27;16.80;1.00
14401;DHT22;7285;50.894;5.462;2022-08-19T06:19:55;16.90;99.90
14401;DHT22;7285;50.894;5.462;2022-08-19T06:22:22;17.00;1.00
14401;DHT22;7285;50.894;5.462;2022-08-19T06:24:49;17.00;1.00
14401;DHT22;7285;50.894;5.462;2022-08-19T06:27:18;17.00;1.00
14401;DHT22;7285;50.894;5.462;2022-08-19T06:29:45;17.10;1.00
14401;DHT22;7285;50.894;5.462;2022-08-19T06:32:15;17.10;99.90
14401;DHT22;7285;50.894;5.462;2022-08-19T06:34:43;17.10;1.00
14401;DHT22;7285;50.894;5.462;2022-08-19T06:37:11;17.10;99.90
14401;DHT22;7285;50.894;5.462;2022-08-19T06:39:40;17.20;1.00
14401;DHT22;7285;50.894;5.462;2022-08-19T06:42:07;17.30;1.00
14401;DHT22;7285;50.894;5.462;2022-08-19T06:44:37;17.30;1.00
14401;DHT22;7285;50.894;5.462;2022-08-19T06:47:07;17.30;1.00
14401;DHT22;7285;50.894;5.462;2022-08-19T06:49:36;17.40;99.90
14401;DHT22;7285;50.894;5.462;2022-08-19T06:52:04;17.50;1.00
14401;DHT22;7285;50.894;5.462;2022-08-19T06:54:31;17.50;1.00
14401;DHT22;7285;50.894;5.462;2022-08-19T06:57:00;17.60;99.90
14401;DHT22;7285;50.894;5.462;2022-08-19T06:59:28;17.70;1.00
14401;DHT22;7285;50.894;5.462;2022-08-19T07:01:59;17.70;1.00
14401;DHT22;7285;50.894;5.462;2022-08-19T07:04:28;17.80;1.00
14401;DHT22;7285;50.894;5.462;2022-08-19T07:06:59;17.90;1.00
14401;DHT22;7285;50.894;5.462;2022-08-19T07:09:27;18.00;99.90
14401;DHT22;7285;50.894;5.462;2022-08-19T07:11:54;18.00;99.90
14401;DHT22;7285;50.894;5.462;2022-08-19T07:14:24;18.10;1.00
14401;DHT22;7285;50.894;5.462;2022-08-19T07:16:54;18.30;1.00
14401;DHT22;7285;50.894;5.462;2022-08-19T07:19:22;18.50;1.00
14401;DHT22;7285;50.894;5.462;2022-08-19T07:21:51;18.70;99.90
14401;DHT22;7285;50.894;5.462;2022-08-19T07:24:20;18.70;1.00
14401;DHT22;7285;50.894;5.462;2022-08-19T07:26:50;18.80;48.30
14401;DHT22;7285;50.894;5.462;2022-08-19T07:29:18;18.90;1.00
14401;DHT22;7285;50.894;5.462;2022-08-19T07:31:49;19.00;1.00
14401;DHT22;7285;50.894;5.462;2022-08-19T07:34:16;19.10;1.00
14401;DHT22;7285;50.894;5.462;2022-08-19T07:36:44;19.10;1.00
14401;DHT22;7285;50.894;5.462;2022-08-19T07:39:13;19.10;1.00
14401;DHT22;7285;50.894;5.462;2022-08-19T07:41:42;19.10;1.00
14401;DHT22;7285;50.894;5.462;2022-08-19T07:44:10;19.10;1.00
14401;DHT22;7285;50.894;5.462;2022-08-19T07:46:40;19.30;1.00
14401;DHT22;7285;50.894;5.462;2022-08-19T07:49:10;19.20;99.90
14401;DHT22;7285;50.894;5.462;2022-08-19T07:51:45;19.20;99.90
14401;DHT22;7285;50.894;5.462;2022-08-19T07:54:13;19.30;99.90
14401;DHT22;7285;50.894;5.462;2022-08-19T07:56:41;19.40;99.90
14401;DHT22;7285;50.894;5.462;2022-08-19T07:59:09;19.50;99.90
14401;DHT22;7285;50.894;5.462;2022-08-19T08:01:36;19.50;99.90
14401;DHT22;7285;50.894;5.462;2022-08-19T08:04:06;19.60;99.90
14401;DHT22;7285;50.894;5.462;2022-08-19T08:06:51;19.90;99.90
14401;DHT22;7285;50.894;5.462;2022-08-19T08:09:38;20.00;99.90
14401;DHT22;7285;50.894;5.462;2022-08-19T08:12:09;20.10;12.70
14401;DHT22;7285;50.894;5.462;2022-08-19T08:14:41;20.10;41.40
14401;DHT22;7285;50.894;5.462;2022-08-19T08:17:14;20.30;35.60
14401;DHT22;7285;50.894;5.462;2022-08-19T08:19:42;20.40;1.00
14401;DHT22;7285;50.894;5.462;2022-08-19T08:22:10;20.50;1.00
14401;DHT22;7285;50.894;5.462;2022-08-19T08:25:03;20.60;99.90
14401;DHT22;7285;50.894;5.462;2022-08-19T08:27:35;20.50;98.40
14401;DHT22;7285;50.894;5.462;2022-08-19T08:30:05;20.60;1.00
14401;DHT22;7285;50.894;5.462;2022-08-19T08:32:34;20.80;1.00
14401;DHT22;7285;50.894;5.462;2022-08-19T08:35:02;20.90;1.00
14401;DHT22;7285;50.894;5.462;2022-08-19T08:37:30;20.90;1.00
14401;DHT22;7285;50.894;5.462;2022-08-19T08:39:57;20.80;97.20
14401;DHT22;7285;50.894;5.462;2022-08-19T08:42:28;20.90;35.10
14401;DHT22;7285;50.894;5.462;2022-08-19T08:45:00;20.80;20.30
14401;DHT22;7285;50.894;5.462;2022-08-19T08:47:31;20.90;91.10
14401;DHT22;7285;50.894;5.462;2022-08-19T08:50:05;21.00;99.90
14401;DHT22;7285;50.894;5.462;2022-08-19T08:52:36;21.10;63.50
14401;DHT22;7285;50.894;5.462;2022-08-19T08:55:07;21.00;99.90
14401;DHT22;7285;50.894;5.462;2022-08-19T08:57:39;20.70;99.90
14401;DHT22;7285;50.894;5.462;2022-08-19T09:00:11;20.70;99.90
14401;DHT22;7285;50.894;5.462;2022-08-19T09:02:42;20.80;99.90
14401;DHT22;7285;50.894;5.462;2022-08-19T09:05:09;20.90;99.90
14401;DHT22;7285;50.894;5.462;2022-08-19T09:07:42;21.00;99.90
14401;DHT22;7285;50.894;5.462;2022-08-19T09:10:17;21.20;99.90
14401;DHT22;7285;50.894;5.462;2022-08-19T09:12:52;21.50;99.90
14401;DHT22;7285;50.894;5.462;2022-08-19T09:15:27;21.70;1.00
14401;DHT22;7285;50.894;5.462;2022-08-19T09:17:59;22.20;1.00
14401;DHT22;7285;50.894;5.462;2022-08-19T09:20:27;22.30;48.60
14401;DHT22;7285;50.894;5.462;2022-08-19T09:22:54;22.10;1.00
14401;DHT22;7285;50.894;5.462;2022-08-19T09:25:23;22.20;8.00
14401;DHT22;7285;50.894;5.462;2022-08-19T09:27:50;22.40;51.20
14401;DHT22;7285;50.894;5.462;2022-08-19T09:30:22;22.70;94.50
14401;DHT22;7285;50.894;5.462;2022-08-19T09:32:49;22.70;1.00
14401;DHT22;7285;50.894;5.462;2022-08-19T09:35:18;22.50;2.70
14401;DHT22;7285;50.894;5.462;2022-08-19T09:37:45;22.70;7.90
14401;DHT22;7285;50.894;5.462;2022-08-19T09:40:12;22.70;16.50
14401;DHT22;7285;50.894;5.462;2022-08-19T09:42:39;22.50;1.00
14401;DHT22;7285;50.894;5.462;2022-08-19T09:45:09;22.50;1.00
14401;DHT22;7285;50.894;5.462;2022-08-19T09:47:37;22.40;1.00
14401;DHT22;7285;50.894;5.462;2022-08-19T09:50:06;22.50;1.00
14401;DHT22;7285;50.894;5.462;2022-08-19T09:52:33;22.60;1.00
14401;DHT22;7285;50.894;5.462;2022-08-19T09:55:02;22.80;1.00
14401;DHT22;7285;50.894;5.462;2022-08-19T09:57:29;22.80;2.40
14401;DHT22;7285;50.894;5.462;2022-08-19T09:59:56;22.90;99.90
14401;DHT22;7285;50.894;5.462;2022-08-19T10:02:23;22.90;6.20
14401;DHT22;7285;50.894;5.462;2022-08-19T10:04:52;22.90;28.60
14401;DHT22;7285;50.894;5.462;2022-08-19T10:07:37;22.60;99.90
14401;DHT22;7285;50.894;5.462;2022-08-19T10:10:05;22.50;99.90
14401;DHT22;7285;50.894;5.462;2022-08-19T10:12:33;22.50;99.90
14401;DHT22;7285;50.894;5.462;2022-08-19T10:15:01;23.10;99.90
14401;DHT22;7285;50.894;5.462;2022-08-19T10:17:28;23.60;99.90
14401;DHT22;7285;50.894;5.462;2022-08-19T10:19:57;24.20;99.90
14401;DHT22;7285;50.894;5.462;2022-08-19T10:22:24;24.00;99.90
14401;DHT22;7285;50.894;5.462;2022-08-19T10:24:51;24.30;99.90
14401;DHT22;7285;50.894;5.462;2022-08-19T10:27:18;24.20;99.90
14401;DHT22;7285;50.894;5.462;2022-08-19T10:29:45;24.40;99.90
14401;DHT22;7285;50.894;5.462;2022-08-19T10:32:13;24.80;1.00
14401;DHT22;7285;50.894;5.462;2022-08-19T10:34:40;24.80;99.90
14401;DHT22;7285;50.894;5.462;2022-08-19T10:37:09;24.50;99.90
14401;DHT22;7285;50.894;5.462;2022-08-19T10:39:36;24.50;73.10
14401;DHT22;7285;50.894;5.462;2022-08-19T10:42:05;25.00;5.20
14401;DHT22;7285;50.894;5.462;2022-08-19T10:44:33;25.10;1.00
14401;DHT22;7285;50.894;5.462;2022-08-19T10:47:02;25.00;1.00
14401;DHT22;7285;50.894;5.462;2022-08-19T10:49:29;25.20;1.60
14401;DHT22;7285;50.894;5.462;2022-08-19T10:51:56;25.50;1.00
14401;DHT22;7285;50.894;5.462;2022-08-19T10:54:42;25.50;1.00
14401;DHT22;7285;50.894;5.462;2022-08-19T10:57:30;25.90;1.00
14401;DHT22;7285;50.894;5.462;2022-08-19T10:59:58;26.40;99.90
14401;DHT22;7285;50.894;5.462;2022-08-19T11:02:25;25.90;1.00
14401;DHT22;7285;50.894;5.462;2022-08-19T11:04:52;25.50;1.00
14401;DHT22;7285;50.894;5.462;2022-08-19T11:07:18;25.10;1.00
14401;DHT22;7285;50.894;5.462;2022-08-19T11:09:48;25.10;43.00
14401;DHT22;7285;50.894;5.462;2022-08-19T11:12:14;25.00;1.00
14401;DHT22;7285;50.894;5.462;2022-08-19T11:14:42;25.30;25.00
14401;DHT22;7285;50.894;5.462;2022-08-19T11:17:09;25.80;75.80
14401;DHT22;7285;50.894;5.462;2022-08-19T11:19:39;25.70;1.00
14401;DHT22;7285;50.894;5.462;2022-08-19T11:22:07;25.40;69.40
14401;DHT22;7285;50.894;5.462;2022-08-19T11:24:36;25.50;94.60
14401;DHT22;7285;50.894;5.462;2022-08-19T11:27:07;25.40;99.90
14401;DHT22;7285;50.894;5.462;2022-08-19T11:29:35;25.60;99.90
14401;DHT22;7285;50.894;5.462;2022-08-19T11:32:04;25.70;99.90
14401;DHT22;7285;50.894;5.462;2022-08-19T11:34:32;25.80;53.80
14401;DHT22;7285;50.894;5.462;2022-08-19T11:37:01;25.30;83.20
14401;DHT22;7285;50.894;5.462;2022-08-19T11:39:30;25.40;10.70
14401;DHT22;7285;50.894;5.462;2022-08-19T11:41:58;25.50;1.00
14401;DHT22;7285;50.894;5.462;2022-08-19T11:44:28;25.00;99.90
14401;DHT22;7285;50.894;5.462;2022-08-19T11:46:56;25.10;99.90
14401;DHT22;7285;50.894;5.462;2022-08-19T11:49:23;25.20;99.90
14401;DHT22;7285;50.894;5.462;2022-08-19T11:51:50;25.20;99.90
14401;DHT22;7285;50.894;5.462;2022-08-19T11:54:17;25.30;99.90
14401;DHT22;7285;50.894;5.462;2022-08-19T11:56:44;25.60;99.90
14401;DHT22;7285;50.894;5.462;2022-08-19T11:59:13;25.70;99.90
14401;DHT22;7285;50.894;5.462;2022-08-19T12:01:42;25.90;99.90
14401;DHT22;7285;50.894;5.462;2022-08-19T12:04:09;25.70;99.90
14401;DHT22;7285;50.894;5.462;2022-08-19T12:06:38;25.60;99.90
14401;DHT22;7285;50.894;5.462;2022-08-19T12:09:07;25.50;99.90
14401;DHT22;7285;50.894;5.462;2022-08-19T12:11:35;25.60;99.90
14401;DHT22;7285;50.894;5.462;2022-08-19T12:14:02;26.00;99.90
14401;DHT22;7285;50.894;5.462;2022-08-19T12:16:30;26.30;99.90
14401;DHT22;7285;50.894;5.462;2022-08-19T12:19:00;26.10;99.90
14401;DHT22;7285;50.894;5.462;2022-08-19T12:21:31;26.20;1.00
14401;DHT22;7285;50.894;5.462;2022-08-19T12:23:59;26.70;99.90
14401;DHT22;7285;50.894;5.462;2022-08-19T12:26:28;26.50;1.00
14401;DHT22;7285;50.894;5.462;2022-08-19T12:28:57;26.40;1.00
14401;DHT22;7285;50.894;5.462;2022-08-19T12:31:25;26.60;80.40
14401;DHT22;7285;50.894;5.462;2022-08-19T12:33:52;26.50;48.60
14401;DHT22;7285;50.894;5.462;2022-08-19T12:36:20;26.10;9.30
14401;DHT22;7285;50.894;5.462;2022-08-19T12:38:49;25.90;1.00
14401;DHT22;7285;50.894;5.462;2022-08-19T12:41:17;26.20;3.60
14401;DHT22;7285;50.894;5.462;2022-08-19T12:43:44;26.40;1.00
14401;DHT22;7285;50.894;5.462;2022-08-19T12:46:13;26.20;1.00
14401;DHT22;7285;50.894;5.462;2022-08-19T12:48:40;26.10;1.00
14401;DHT22;7285;50.894;5.462;2022-08-19T12:51:13;25.90;1.00
14401;DHT22;7285;50.894;5.462;2022-08-19T12:53:42;26.00;1.00
14401;DHT22;7285;50.894;5.462;2022-08-19T12:56:10;25.90;77.00
14401;DHT22;7285;50.894;5.462;2022-08-19T12:58:40;25.60;1.00
14401;DHT22;7285;50.894;5.462;2022-08-19T13:01:08;25.40;1.00
14401;DHT22;7285;50.894;5.462;2022-08-19T13:03:36;25.30;1.00
14401;DHT22;7285;50.894;5.462;2022-08-19T13:06:03;25.00;1.00
14401;DHT22;7285;50.894;5.462;2022-08-19T13:08:30;24.90;1.00
14401;DHT22;7285;50.894;5.462;2022-08-19T13:11:07;24.70;1.00
14401;DHT22;7285;50.894;5.462;2022-08-19T13:13:34;24.60;1.00
14401;DHT22;7285;50.894;5.462;2022-08-19T13:16:01;24.60;1.00
14401;DHT22;7285;50.894;5.462;2022-08-19T13:18:29;24.50;1.00
14401;DHT22;7285;50.894;5.462;2022-08-19T13:20:57;24.40;1.00
14401;DHT22;7285;50.894;5.462;2022-08-19T13:23:23;24.30;9.80
14401;DHT22;7285;50.894;5.462;2022-08-19T13:25:58;24.30;1.00
14401;DHT22;7285;50.894;5.462;2022-08-19T13:28:26;24.30;1.00
14401;DHT22;7285;50.894;5.462;2022-08-19T13:31:15;24.40;1.00
14401;DHT22;7285;50.894;5.462;2022-08-19T13:33:59;24.50;1.00
14401;DHT22;7285;50.894;5.462;2022-08-19T13:36:26;24.50;1.00
14401;DHT22;7285;50.894;5.462;2022-08-19T13:38:53;24.30;1.00
14401;DHT22;7285;50.894;5.462;2022-08-19T13:41:23;24.40;1.00
14401;DHT22;7285;50.894;5.462;2022-08-19T13:43:50;24.40;1.00
14401;DHT22;7285;50.894;5.462;2022-08-19T13:46:17;24.40;1.00
14401;DHT22;7285;50.894;5.462;2022-08-19T13:48:46;24.50;1.00
14401;DHT22;7285;50.894;5.462;2022-08-19T13:51:14;24.50;1.00
14401;DHT22;7285;50.894;5.462;2022-08-19T13:53:42;24.50;1.00
14401;DHT22;7285;50.894;5.462;2022-08-19T13:56:14;24.40;1.00
14401;DHT22;7285;50.894;5.462;2022-08-19T13:58:43;24.50;1.00
14401;DHT22;7285;50.894;5.462;2022-08-19T14:01:10;24.60;1.00
14401;DHT22;7285;50.894;5.462;2022-08-19T14:03:38;24.70;1.00
14401;DHT22;7285;50.894;5.462;2022-08-19T14:06:05;24.70;1.00
14401;DHT22;7285;50.894;5.462;2022-08-19T14:08:32;24.50;1.00
14401;DHT22;7285;50.894;5.462;2022-08-19T14:10:59;24.70;1.00
14401;DHT22;7285;50.894;5.462;2022-08-19T14:13:26;24.80;1.00
14401;DHT22;7285;50.894;5.462;2022-08-19T14:15:55;25.00;1.00
14401;DHT22;7285;50.894;5.462;2022-08-19T14:18:22;25.30;1.00
14401;DHT22;7285;50.894;5.462;2022-08-19T14:20:50;25.60;1.00
14401;DHT22;7285;50.894;5.462;2022-08-19T14:23:17;25.60;1.00
14401;DHT22;7285;50.894;5.462;2022-08-19T14:25:45;25.60;1.00
14401;DHT22;7285;50.894;5.462;2022-08-19T14:28:13;25.70;1.00
14401;DHT22;7285;50.894;5.462;2022-08-19T14:30:40;25.90;1.00
14401;DHT22;7285;50.894;5.462;2022-08-19T14:33:08;25.80;1.00
14401;DHT22;7285;50.894;5.462;2022-08-19T14:35:36;25.90;1.00
14401;DHT22;7285;50.894;5.462;2022-08-19T14:38:03;25.90;1.00
14401;DHT22;7285;50.894;5.462;2022-08-19T14:40:31;25.80;1.00
14401;DHT22;7285;50.894;5.462;2022-08-19T14:43:01;26.10;1.00
14401;DHT22;7285;50.894;5.462;2022-08-19T14:45:32;26.30;1.00
14401;DHT22;7285;50.894;5.462;2022-08-19T14:48:00;26.40;1.00
14401;DHT22;7285;50.894;5.462;2022-08-19T14:50:28;26.10;1.00
14401;DHT22;7285;50.894;5.462;2022-08-19T14:53:00;26.20;1.00
14401;DHT22;7285;50.894;5.462;2022-08-19T14:55:29;26.70;1.00
14401;DHT22;7285;50.894;5.462;2022-08-19T14:57:57;26.90;1.00
14401;DHT22;7285;50.894;5.462;2022-08-19T15:00:24;26.70;12.10
14401;DHT22;7285;50.894;5.462;2022-08-19T15:02:52;26.30;1.00
14401;DHT22;7285;50.894;5.462;2022-08-19T15:05:19;26.10;1.00
14401;DHT22;7285;50.894;5.462;2022-08-19T15:07:48;26.10;1.00
14401;DHT22;7285;50.894;5.462;2022-08-19T15:10:15;26.50;1.00
14401;DHT22;7285;50.894;5.462;2022-08-19T15:12:42;26.80;22.20
14401;DHT22;7285;50.894;5.462;2022-08-19T15:15:11;27.20;1.00
14401;DHT22;7285;50.894;5.462;2022-08-19T15:17:39;27.00;1.00
14401;DHT22;7285;50.894;5.462;2022-08-19T15:20:07;26.70;1.00
14401;DHT22;7285;50.894;5.462;2022-08-19T15:22:34;26.30;1.00
14401;DHT22;7285;50.894;5.462;2022-08-19T15:25:04;25.90;1.00
14401;DHT22;7285;50.894;5.462;2022-08-19T15:27:32;25.90;1.00
14401;DHT22;7285;50.894;5.462;2022-08-19T15:30:00;25.90;99.90
14401;DHT22;7285;50.894;5.462;2022-08-19T15:32:27;25.90;99.90
14401;DHT22;7285;50.894;5.462;2022-08-19T15:34:54;25.80;99.90
14401;DHT22;7285;50.894;5.462;2022-08-19T15:37:21;25.60;99.90
14401;DHT22;7285;50.894;5.462;2022-08-19T15:39:48;25.40;99.90
14401;DHT22;7285;50.894;5.462;2022-08-19T15:42:17;25.20;99.90
14401;DHT22;7285;50.894;5.462;2022-08-19T15:44:44;25.20;99.90
14401;DHT22;7285;50.894;5.462;2022-08-19T15:47:11;25.10;46.20
14401;DHT22;7285;50.894;5.462;2022-08-19T15:49:39;25.10;85.10
14401;DHT22;7285;50.894;5.462;2022-08-19T15:52:06;25.10;98.40
14401;DHT22;7285;50.894;5.462;2022-08-19T15:54:33;25.00;63.80
14401;DHT22;7285;50.894;5.462;2022-08-19T15:57:00;25.00;86.60
14401;DHT22;7285;50.894;5.462;2022-08-19T15:59:45;25.00;65.90
14401;DHT22;7285;50.894;5.462;2022-08-19T16:02:30;24.90;63.00
14401;DHT22;7285;50.894;5.462;2022-08-19T16:05:26;24.80;51.30